createdAt,value
2023-03-11T00:00:46.867Z,5.05
2023-03-11T00:03:18.573Z,4.00
2023-03-11T00:05:47.331Z,3.95
2023-03-11T00:08:17.904Z,4.47
2023-03-11T00:10:47.487Z,5.53
2023-03-11T00:13:17.273Z,4.68
2023-03-11T00:15:47.116Z,4.25
2023-03-11T00:18:16.962Z,3.83
2023-03-11T00:20:47.572Z,3.78
2023-03-11T00:23:15.981Z,4.22
2023-03-11T00:25:45.734Z,4.72
2023-03-11T00:30:45.376Z,4.07
2023-03-11T00:33:14.608Z,4.57
2023-03-11T00:35:45.157Z,3.28
2023-03-11T00:38:15.838Z,4.18
2023-03-11T00:40:44.853Z,4.50
2023-03-11T00:43:13.352Z,4.18
2023-03-11T00:45:41.724Z,4.15
2023-03-11T00:48:10.298Z,4.40
2023-03-11T00:50:38.534Z,4.45
2023-03-11T00:53:08.351Z,4.75
2023-03-11T00:55:37.337Z,4.43
2023-03-11T00:58:07.743Z,4.63
2023-03-11T01:00:35.985Z,4.57
2023-03-11T01:03:04.317Z,4.55
2023-03-11T01:05:34.915Z,2.97
2023-03-11T01:08:03.031Z,4.78
2023-03-11T01:10:33.949Z,4.03
2023-03-11T01:13:02.186Z,5.20
2023-03-11T01:15:32.275Z,4.20
2023-03-11T01:18:00.286Z,4.88
2023-03-11T01:20:28.605Z,4.05
2023-03-11T01:22:56.648Z,4.50
2023-03-11T01:25:26.086Z,5.50
2023-03-11T01:27:55.426Z,5.13
2023-03-11T01:30:26.693Z,4.85
2023-03-11T01:32:55.842Z,4.70
2023-03-11T01:35:26.199Z,5.03
2023-03-11T01:37:54.830Z,5.28
2023-03-11T01:40:27.359Z,4.47
2023-03-11T01:42:57.154Z,3.55
2023-03-11T01:45:40.501Z,3.42
2023-03-11T01:48:09.148Z,3.75
2023-03-11T01:50:40.977Z,3.83
2023-03-11T01:53:10.559Z,3.60
2023-03-11T01:55:39.454Z,3.88
2023-03-11T01:58:12.484Z,2.90
2023-03-11T02:00:40.583Z,3.38
2023-03-11T02:03:12.746Z,3.58
2023-03-11T02:05:41.951Z,3.45
2023-03-11T02:08:10.428Z,4.63
2023-03-11T02:10:40.478Z,3.17
2023-03-11T02:13:10.745Z,4.15
2023-03-11T02:15:40.029Z,3.63
2023-03-11T02:18:09.369Z,3.50
2023-03-11T02:20:46.227Z,2.90
2023-03-11T02:23:16.436Z,3.55
2023-03-11T02:25:51.104Z,3.78
2023-03-11T02:28:22.282Z,2.58
2023-03-11T02:30:51.573Z,3.05
2023-03-11T02:33:20.896Z,3.72
2023-03-11T02:35:49.028Z,3.45
2023-03-11T02:38:17.071Z,3.78
2023-03-11T02:40:53.071Z,3.63
2023-03-11T02:43:26.746Z,3.80
2023-03-11T02:45:55.214Z,4.20
2023-03-11T02:48:24.064Z,5.10
2023-03-11T02:50:53.420Z,4.63
2023-03-11T02:53:21.387Z,4.68
2023-03-11T02:55:49.283Z,3.13
2023-03-11T02:58:17.556Z,4.22
2023-03-11T03:00:47.030Z,3.58
2023-03-11T03:03:15.907Z,5.35
2023-03-11T03:05:43.794Z,3.53
2023-03-11T03:08:11.797Z,5.25
2023-03-11T03:10:39.912Z,4.07
2023-03-11T03:13:07.866Z,4.03
2023-03-11T03:15:37.445Z,2.85
2023-03-11T03:18:06.941Z,3.67
2023-03-11T03:20:35.186Z,4.10
2023-03-11T03:23:03.290Z,4.20
2023-03-11T03:25:31.533Z,4.00
2023-03-11T03:27:59.464Z,3.88
2023-03-11T03:30:31.208Z,4.55
2023-03-11T03:32:59.809Z,5.25
2023-03-11T03:35:29.094Z,3.30
2023-03-11T03:37:58.139Z,4.13
2023-03-11T03:40:26.159Z,3.72
2023-03-11T03:42:54.091Z,4.35
2023-03-11T03:45:22.602Z,4.03
2023-03-11T03:47:50.544Z,3.70
2023-03-11T03:50:18.815Z,3.72
2023-03-11T03:52:48.727Z,3.38
2023-03-11T03:55:17.622Z,3.20
2023-03-11T03:57:45.462Z,3.33
2023-03-11T04:00:14.751Z,4.20
2023-03-11T04:02:42.991Z,4.85
2023-03-11T04:05:12.352Z,3.50
2023-03-11T04:07:40.563Z,3.75
2023-03-11T04:10:11.767Z,3.53
2023-03-11T04:12:39.672Z,4.00
2023-03-11T04:15:09.684Z,4.38
2023-03-11T04:17:37.999Z,2.67
2023-03-11T04:20:09.043Z,3.05
2023-03-11T04:22:37.464Z,3.13
2023-03-11T04:25:06.040Z,3.80
2023-03-11T04:27:35.640Z,3.72
2023-03-11T04:30:03.588Z,4.47
2023-03-11T04:32:31.844Z,4.03
2023-03-11T04:34:59.759Z,3.83
2023-03-11T04:37:29.384Z,3.42
2023-03-11T04:39:57.387Z,4.65
2023-03-11T04:42:25.826Z,3.47
2023-03-11T04:44:55.459Z,4.05
2023-03-11T04:47:23.370Z,3.78
2023-03-11T04:49:51.276Z,4.13
2023-03-11T04:52:19.132Z,4.00
2023-03-11T04:54:46.982Z,2.90
2023-03-11T04:57:15.357Z,2.97
2023-03-11T04:59:43.534Z,3.25
2023-03-11T05:02:13.070Z,2.40
2023-03-11T05:04:41.107Z,2.80
2023-03-11T05:07:09.120Z,3.47
2023-03-11T05:09:37.209Z,3.60
2023-03-11T05:12:05.717Z,3.53
2023-03-11T05:14:34.049Z,3.20
2023-03-11T05:17:01.987Z,3.63
2023-03-11T05:19:35.516Z,4.13
2023-03-11T05:22:04.483Z,4.57
2023-03-11T05:24:32.764Z,3.78
2023-03-11T05:27:01.838Z,3.85
2023-03-11T05:29:30.287Z,3.65
2023-03-11T05:31:58.509Z,3.42
2023-03-11T05:34:26.624Z,3.63
2023-03-11T05:36:58.092Z,4.55
2023-03-11T05:39:26.412Z,3.08
2023-03-11T05:41:58.835Z,3.70
2023-03-11T05:44:27.501Z,4.22
2023-03-11T05:46:56.012Z,4.03
2023-03-11T05:49:24.843Z,7.70
2023-03-11T05:51:55.296Z,5.93
2023-03-11T05:54:26.078Z,5.85
2023-03-11T05:56:55.643Z,4.95
2023-03-11T05:59:24.129Z,4.78
2023-03-11T06:01:52.105Z,4.03
2023-03-11T06:04:20.211Z,4.50
2023-03-11T06:06:48.277Z,4.78
2023-03-11T06:09:16.873Z,4.32
2023-03-11T06:11:46.151Z,4.40
2023-03-11T06:14:16.729Z,5.25
2023-03-11T06:16:44.702Z,4.95
2023-03-11T06:19:12.752Z,4.40
2023-03-11T06:21:40.786Z,3.92
2023-03-11T06:24:09.382Z,4.53
2023-03-11T06:26:37.667Z,4.28
2023-03-11T06:29:10.757Z,4.40
2023-03-11T06:31:40.129Z,4.18
2023-03-11T06:34:08.592Z,4.05
2023-03-11T06:36:36.730Z,3.67
2023-03-11T06:39:05.421Z,4.45
2023-03-11T06:41:37.846Z,4.40
2023-03-11T06:44:07.277Z,5.03
2023-03-11T06:46:35.272Z,5.05
2023-03-11T06:49:03.373Z,4.22
2023-03-11T06:51:31.261Z,4.78
2023-03-11T06:53:59.287Z,4.82
2023-03-11T06:56:27.624Z,5.80
2023-03-11T06:58:56.145Z,6.00
2023-03-11T07:01:27.342Z,6.60
2023-03-11T07:03:55.694Z,5.35
2023-03-11T07:06:25.966Z,4.70
2023-03-11T07:08:55.140Z,5.43
2023-03-11T07:11:25.420Z,4.90
2023-03-11T07:13:54.217Z,5.40
2023-03-11T07:16:24.035Z,5.38
2023-03-11T07:18:56.098Z,4.78
2023-03-11T07:21:24.598Z,3.95
2023-03-11T07:23:54.599Z,3.90
2023-03-11T07:26:23.256Z,4.45
2023-03-11T07:28:52.771Z,4.75
2023-03-11T07:31:23.547Z,4.93
2023-03-11T07:33:54.263Z,4.20
2023-03-11T07:36:27.559Z,3.78
2023-03-11T07:38:58.478Z,4.50
2023-03-11T07:41:27.669Z,3.60
2023-03-11T07:43:57.011Z,4.35
2023-03-11T07:46:26.049Z,4.38
2023-03-11T07:48:55.859Z,3.53
2023-03-11T07:51:30.549Z,3.75
2023-03-11T07:53:59.934Z,4.18
2023-03-11T07:56:30.475Z,3.15
2023-03-11T07:58:59.164Z,3.60
2023-03-11T08:01:30.565Z,3.58
2023-03-11T08:04:00.007Z,3.63
2023-03-11T08:06:31.519Z,4.05
2023-03-11T08:09:01.983Z,6.35
2023-03-11T08:11:33.702Z,4.35
2023-03-11T08:14:01.635Z,3.90
2023-03-11T08:16:29.731Z,5.22
2023-03-11T08:19:00.181Z,3.10
2023-03-11T08:21:32.076Z,3.67
2023-03-11T08:24:01.996Z,4.25
2023-03-11T08:26:30.925Z,4.70
2023-03-11T08:29:00.204Z,5.22
2023-03-11T08:31:30.895Z,4.43
2023-03-11T08:34:02.895Z,6.15
2023-03-11T08:36:31.576Z,6.03
2023-03-11T08:38:59.856Z,4.63
2023-03-11T08:41:28.671Z,4.72
2023-03-11T08:43:56.896Z,4.55
2023-03-11T08:46:27.655Z,5.13
2023-03-11T08:48:57.571Z,5.63
2023-03-11T08:51:28.722Z,5.55
2023-03-11T08:53:57.045Z,5.45
2023-03-11T08:56:25.092Z,5.25
2023-03-11T08:58:53.368Z,8.05
2023-03-11T09:01:21.375Z,5.80
2023-03-11T09:03:49.677Z,6.15
2023-03-11T09:06:18.836Z,7.40
2023-03-11T09:08:48.869Z,5.80
2023-03-11T09:11:18.074Z,4.38
2023-03-11T09:13:46.584Z,6.00
2023-03-11T09:16:15.904Z,5.18
2023-03-11T09:18:44.170Z,5.10
2023-03-11T09:21:12.972Z,5.43
2023-03-11T09:23:44.127Z,6.10
2023-03-11T09:26:14.493Z,4.70
2023-03-11T09:28:43.581Z,5.57
2023-03-11T09:31:11.824Z,4.80
2023-03-11T09:33:40.609Z,5.13
2023-03-11T09:36:10.196Z,3.90
2023-03-11T09:38:38.370Z,4.30
2023-03-11T09:41:15.577Z,4.28
2023-03-11T09:43:56.031Z,5.57
2023-03-11T09:46:36.721Z,5.32
2023-03-11T09:49:15.924Z,5.40
2023-03-11T09:51:48.019Z,5.43
2023-03-11T09:54:16.360Z,5.85
2023-03-11T09:56:45.186Z,5.30
2023-03-11T09:59:20.678Z,5.07
2023-03-11T10:01:51.603Z,5.30
2023-03-11T10:04:24.553Z,4.72
2023-03-11T10:06:53.164Z,4.80
2023-03-11T10:09:32.360Z,5.70
2023-03-11T10:12:22.860Z,4.75
2023-03-11T10:15:05.967Z,4.93
2023-03-11T10:18:02.514Z,6.15
2023-03-11T10:20:41.040Z,4.82
2023-03-11T10:23:20.888Z,6.13
2023-03-11T10:25:58.420Z,5.60
2023-03-11T10:28:32.026Z,4.22
2023-03-11T10:31:07.895Z,3.80
2023-03-11T10:33:43.088Z,5.18
2023-03-11T10:36:19.133Z,4.30
2023-03-11T10:38:50.085Z,2.80
2023-03-11T10:41:24.186Z,4.38
2023-03-11T10:43:58.177Z,4.72
2023-03-11T10:46:29.660Z,4.88
2023-03-11T10:48:58.151Z,3.92
2023-03-11T10:51:33.617Z,4.00
2023-03-11T10:54:03.508Z,5.03
2023-03-11T10:56:33.678Z,5.07
2023-03-11T10:59:02.952Z,5.10
2023-03-11T11:01:32.774Z,4.70
2023-03-11T11:04:04.149Z,5.93
2023-03-11T11:06:34.888Z,5.30
2023-03-11T11:09:16.896Z,6.40
2023-03-11T11:12:02.162Z,4.45
2023-03-11T11:14:44.214Z,4.82
2023-03-11T11:17:21.791Z,5.07
2023-03-11T11:19:50.663Z,5.15
2023-03-11T11:22:22.022Z,4.65
2023-03-11T11:24:52.556Z,5.30
2023-03-11T11:27:22.724Z,4.93
2023-03-11T11:30:12.406Z,4.90
2023-03-11T11:32:42.346Z,4.32
2023-03-11T11:35:13.729Z,5.05
2023-03-11T11:37:44.587Z,5.05
2023-03-11T11:40:25.663Z,4.95
2023-03-11T11:42:57.198Z,5.07
2023-03-11T11:45:33.782Z,5.47
2023-03-11T11:48:08.791Z,5.25
2023-03-11T11:50:39.112Z,5.47
2023-03-11T11:53:26.170Z,4.97
2023-03-11T11:55:55.168Z,5.90
2023-03-11T11:58:23.469Z,4.57
2023-03-11T12:01:04.653Z,4.68
2023-03-11T12:04:04.337Z,3.35
2023-03-11T12:06:41.093Z,3.92
2023-03-11T12:09:24.163Z,4.85
2023-03-11T12:11:58.810Z,4.88
2023-03-11T12:14:32.233Z,5.65
2023-03-11T12:17:03.873Z,5.80
2023-03-11T12:19:45.806Z,5.88
2023-03-11T12:22:46.229Z,5.57
2023-03-11T12:25:27.215Z,5.38
2023-03-11T12:28:01.405Z,5.05
2023-03-11T12:30:33.443Z,5.75
2023-03-11T12:33:05.343Z,6.07
2023-03-11T12:35:37.143Z,5.50
2023-03-11T12:38:18.950Z,4.50
2023-03-11T12:41:01.780Z,4.95
2023-03-11T12:44:11.735Z,5.18
2023-03-11T12:47:18.559Z,4.30
2023-03-11T12:49:48.395Z,4.47
2023-03-11T12:52:29.360Z,3.58
2023-03-11T12:55:31.400Z,4.70
2023-03-11T12:58:13.048Z,3.97
2023-03-11T13:00:50.565Z,4.15
2023-03-11T13:03:49.009Z,4.70
2023-03-11T13:06:30.774Z,4.45
2023-03-11T13:09:00.735Z,4.85
2023-03-11T13:11:42.993Z,5.05
2023-03-11T13:14:28.677Z,5.07
2023-03-11T13:16:57.617Z,3.75
2023-03-11T13:19:48.328Z,4.13
2023-03-11T13:22:45.097Z,4.95
2023-03-11T13:25:43.926Z,4.85
2023-03-11T13:28:34.881Z,6.00
2023-03-11T13:31:15.480Z,5.65
2023-03-11T13:33:54.492Z,5.50
2023-03-11T13:36:33.831Z,4.88
2023-03-11T13:39:23.269Z,5.70
2023-03-11T13:41:54.121Z,4.65
2023-03-11T13:44:29.996Z,4.88
2023-03-11T13:47:02.694Z,5.97
2023-03-11T13:49:37.113Z,4.28
2023-03-11T13:52:10.753Z,5.47
2023-03-11T13:54:47.644Z,5.78
2023-03-11T13:57:26.846Z,5.28
2023-03-11T13:59:57.574Z,4.30
2023-03-11T14:02:28.581Z,5.20
2023-03-11T14:05:04.400Z,5.35
2023-03-11T14:07:35.386Z,4.25
2023-03-11T14:10:25.070Z,5.75
2023-03-11T14:13:06.766Z,4.57
2023-03-11T14:15:45.250Z,5.32
2023-03-11T14:18:38.184Z,5.28
2023-03-11T14:21:12.954Z,7.70
2023-03-11T14:23:44.235Z,4.55
2023-03-11T14:26:16.589Z,4.45
2023-03-11T14:28:50.744Z,4.28
2023-03-11T14:31:30.751Z,6.15
2023-03-11T14:34:04.446Z,5.97
2023-03-11T14:36:41.714Z,5.07
2023-03-11T14:39:27.504Z,5.35
2023-03-11T14:41:58.690Z,4.13
2023-03-11T14:44:30.387Z,4.72
2023-03-11T14:47:05.663Z,5.47
2023-03-11T14:49:34.017Z,5.63
2023-03-11T14:52:04.655Z,4.97
2023-03-11T14:54:37.718Z,6.28
2023-03-11T14:57:11.931Z,4.05
2023-03-11T14:59:42.037Z,3.95
2023-03-11T15:02:32.194Z,4.38
2023-03-11T15:05:06.772Z,3.47
2023-03-11T15:07:36.798Z,3.95
2023-03-11T15:10:09.823Z,4.28
2023-03-11T15:12:42.509Z,4.13
2023-03-11T15:15:27.144Z,4.53
2023-03-11T15:17:55.834Z,4.63
2023-03-11T15:20:31.160Z,3.65
2023-03-11T15:23:01.838Z,4.22
2023-03-11T15:25:34.506Z,4.30
2023-03-11T15:28:16.200Z,4.30
2023-03-11T15:30:45.557Z,3.63
2023-03-11T15:33:34.025Z,5.05
2023-03-11T15:36:02.277Z,3.75
2023-03-11T15:38:30.428Z,4.22
2023-03-11T15:41:01.032Z,4.30
2023-03-11T15:43:30.759Z,5.22
2023-03-11T15:46:03.405Z,4.15
2023-03-11T15:48:31.489Z,4.90
2023-03-11T15:51:01.259Z,5.43
2023-03-11T15:53:30.925Z,5.82
2023-03-11T15:56:07.353Z,5.88
2023-03-11T15:58:37.692Z,7.75
2023-03-11T16:01:07.709Z,5.90
2023-03-11T16:03:35.640Z,6.60
2023-03-11T16:06:03.922Z,6.32
2023-03-11T16:08:32.211Z,4.32
2023-03-11T16:11:00.160Z,5.47
2023-03-11T16:13:28.158Z,4.85
2023-03-11T16:15:56.413Z,4.65
2023-03-11T16:18:25.711Z,6.07
2023-03-11T16:20:55.136Z,4.82
2023-03-11T16:23:26.214Z,3.65
2023-03-11T16:25:57.979Z,4.75
2023-03-11T16:28:25.923Z,5.70
2023-03-11T16:30:53.844Z,5.20
2023-03-11T16:33:22.160Z,5.50
2023-03-11T16:35:51.855Z,5.47
2023-03-11T16:38:20.624Z,4.30
2023-03-11T16:40:56.788Z,5.07
2023-03-11T16:43:24.745Z,5.85
2023-03-11T16:45:53.922Z,6.78
2023-03-11T16:48:21.922Z,6.90
2023-03-11T16:50:51.992Z,6.75
2023-03-11T16:53:20.236Z,7.05
2023-03-11T16:55:48.871Z,6.65
2023-03-11T16:58:16.863Z,4.70
2023-03-11T17:00:45.540Z,4.18
2023-03-11T17:03:13.905Z,3.88
2023-03-11T17:05:42.276Z,4.10
2023-03-11T17:08:12.933Z,5.22
2023-03-11T17:10:43.659Z,5.32
2023-03-11T17:13:13.976Z,5.38
2023-03-11T17:15:44.710Z,6.93
2023-03-11T17:18:13.780Z,8.13
2023-03-11T17:20:43.706Z,8.10
2023-03-11T17:23:13.458Z,12.07
2023-03-11T17:25:42.687Z,10.07
2023-03-11T17:28:11.027Z,12.20
2023-03-11T17:30:44.195Z,7.53
2023-03-11T17:33:12.613Z,14.35
2023-03-11T17:35:40.932Z,15.10
2023-03-11T17:38:09.324Z,19.73
2023-03-11T17:40:39.512Z,19.17
2023-03-11T17:43:07.705Z,15.32
2023-03-11T17:45:38.419Z,12.32
2023-03-11T17:48:08.001Z,8.70
2023-03-11T17:50:38.766Z,9.55
2023-03-11T17:53:07.602Z,14.30
2023-03-11T17:55:39.382Z,11.85
2023-03-11T17:58:08.766Z,15.77
2023-03-11T18:00:37.074Z,13.15
2023-03-11T18:03:05.359Z,10.57
2023-03-11T18:05:33.555Z,11.57
2023-03-11T18:08:01.637Z,8.63
2023-03-11T18:10:30.122Z,8.48
2023-03-11T18:12:58.050Z,9.30
2023-03-11T18:15:28.198Z,7.80
2023-03-11T18:17:57.946Z,7.47
2023-03-11T18:20:26.385Z,7.93
2023-03-11T18:22:56.050Z,7.07
2023-03-11T18:25:23.998Z,6.43
2023-03-11T18:27:53.095Z,6.57
2023-03-11T18:30:21.327Z,6.43
2023-03-11T18:32:50.731Z,11.73
2023-03-11T18:35:19.119Z,9.13
2023-03-11T18:37:47.187Z,9.13
2023-03-11T18:40:15.739Z,16.60
2023-03-11T18:42:43.679Z,14.60
2023-03-11T18:45:12.413Z,15.75
2023-03-11T18:47:40.798Z,15.65
2023-03-11T18:50:12.388Z,17.88
2023-03-11T18:52:40.581Z,17.63
2023-03-11T18:55:09.121Z,14.27
2023-03-11T18:57:37.018Z,10.48
2023-03-11T19:00:05.720Z,8.15
2023-03-11T19:02:33.671Z,6.95
2023-03-11T19:05:01.679Z,6.25
2023-03-11T19:07:31.312Z,5.80
2023-03-11T19:09:59.349Z,6.50
2023-03-11T19:12:29.694Z,6.53
2023-03-11T19:14:57.918Z,5.95
2023-03-11T19:17:26.751Z,6.00
2023-03-11T19:19:55.077Z,6.18
2023-03-11T19:22:23.037Z,5.30
2023-03-11T19:24:54.803Z,7.43
2023-03-11T19:27:22.968Z,5.55
2023-03-11T19:29:52.099Z,5.93
2023-03-11T19:32:20.122Z,6.57
2023-03-11T19:34:48.272Z,7.13
2023-03-11T19:37:17.258Z,8.23
2023-03-11T19:39:45.439Z,5.75
2023-03-11T19:42:15.436Z,5.40
2023-03-11T19:44:43.467Z,4.43
2023-03-11T19:47:12.939Z,5.05
2023-03-11T19:49:42.335Z,6.00
2023-03-11T19:52:11.323Z,5.70
2023-03-11T19:54:44.737Z,4.32
2023-03-11T19:57:19.056Z,4.78
2023-03-11T19:59:48.386Z,5.60
2023-03-11T20:02:17.128Z,4.97
2023-03-11T20:04:45.139Z,4.43
2023-03-11T20:07:14.501Z,5.05
2023-03-11T20:09:42.630Z,5.97
2023-03-11T20:12:10.844Z,5.45
2023-03-11T20:14:41.816Z,6.70
2023-03-11T20:17:11.900Z,7.95
2023-03-11T20:19:42.082Z,7.28
2023-03-11T20:22:13.718Z,8.15
2023-03-11T20:24:41.992Z,8.57
2023-03-11T20:27:09.940Z,9.20
2023-03-11T20:29:38.373Z,8.45
2023-03-11T20:32:08.133Z,9.48
2023-03-11T20:34:36.393Z,9.02
2023-03-11T20:37:04.435Z,7.88
2023-03-11T20:39:39.800Z,10.13
2023-03-11T20:42:07.768Z,10.05
2023-03-11T20:44:35.983Z,8.68
2023-03-11T20:47:04.095Z,9.38
2023-03-11T20:49:33.932Z,10.77
2023-03-11T20:52:04.805Z,9.77
2023-03-11T20:54:32.836Z,10.20
2023-03-11T20:57:02.184Z,11.27
2023-03-11T20:59:30.118Z,12.35
2023-03-11T21:01:58.218Z,12.88
2023-03-11T21:04:26.321Z,12.68
2023-03-11T21:06:57.645Z,10.98
2023-03-11T21:09:26.238Z,9.88
2023-03-11T21:11:54.790Z,10.57
2023-03-11T21:14:23.024Z,10.73
2023-03-11T21:16:51.347Z,10.85
2023-03-11T21:19:22.188Z,11.60
2023-03-11T21:21:50.379Z,11.00
2023-03-11T21:24:21.774Z,15.07
2023-03-11T21:26:51.400Z,13.85
2023-03-11T21:29:21.086Z,13.43
2023-03-11T21:31:49.269Z,14.63
2023-03-11T21:34:17.458Z,14.50
2023-03-11T21:36:46.012Z,14.45
2023-03-11T21:39:15.455Z,15.63
2023-03-11T21:41:44.886Z,15.32
2023-03-11T21:44:13.109Z,15.70
2023-03-11T21:46:41.186Z,14.80
2023-03-11T21:49:10.022Z,12.52
2023-03-11T21:51:38.155Z,13.50
2023-03-11T21:54:06.411Z,11.73
2023-03-11T21:56:34.840Z,11.48
2023-03-11T21:59:05.020Z,12.00
2023-03-11T22:01:34.127Z,11.27
2023-03-11T22:04:02.728Z,10.75
2023-03-11T22:06:33.513Z,10.15
2023-03-11T22:09:02.000Z,9.45
2023-03-11T22:11:30.185Z,10.02
2023-03-11T22:14:00.569Z,8.50
2023-03-11T22:16:31.052Z,8.60
2023-03-11T22:18:59.169Z,6.05
2023-03-11T22:21:27.336Z,7.05
2023-03-11T22:23:55.290Z,7.32
2023-03-11T22:26:23.357Z,8.65
2023-03-11T22:28:51.325Z,9.95
2023-03-11T22:31:19.417Z,12.25
2023-03-11T22:33:48.837Z,12.85
2023-03-11T22:36:16.992Z,12.38
2023-03-11T22:38:45.269Z,11.48
2023-03-11T22:41:14.205Z,10.95
2023-03-11T22:43:42.262Z,11.43
2023-03-11T22:46:10.665Z,10.57
2023-03-11T22:48:38.650Z,9.95
2023-03-11T22:51:08.292Z,10.52
2023-03-11T22:53:36.339Z,10.13
2023-03-11T22:56:09.177Z,11.20
2023-03-11T22:58:37.145Z,9.57
2023-03-11T23:01:05.758Z,9.98
2023-03-11T23:03:34.571Z,9.77
2023-03-11T23:06:03.628Z,9.45
2023-03-11T23:08:32.963Z,10.90
2023-03-11T23:11:04.017Z,10.55
2023-03-11T23:13:32.436Z,10.90
2023-03-11T23:16:05.072Z,12.60
2023-03-11T23:18:33.003Z,14.05
2023-03-11T23:21:00.948Z,12.63
2023-03-11T23:23:29.335Z,11.07
2023-03-11T23:25:58.970Z,11.00
2023-03-11T23:28:26.965Z,12.15
2023-03-11T23:30:55.208Z,11.27
2023-03-11T23:33:23.181Z,12.25
2023-03-11T23:35:51.185Z,11.77
2023-03-11T23:38:19.126Z,11.32
2023-03-11T23:40:47.105Z,11.38
2023-03-11T23:43:16.493Z,11.77
2023-03-11T23:45:44.498Z,11.88
2023-03-11T23:48:12.449Z,11.25
2023-03-11T23:50:40.523Z,9.90
2023-03-11T23:53:08.454Z,10.32
2023-03-11T23:55:38.656Z,9.80
2023-03-11T23:58:06.684Z,10.32
